Flight Track Log - Related Links

Times and Time Zones

All times are in EDT time to prevent confusion due to time zone crossing. See the N777NC flight status page for this flight to view local times or setup timezone preferences in your user account.

Time Position Orientation Groundspeed Altitude Reporting Facility
EDT Latitude Longitude Course Direction KTS MPH feet Rate Location/Type
Mon 05:47:52 PM 33.6578 -84.4956 268° West 438 504 2,800  Level Atlanta Center
Mon 05:48:52 PM 33.6761 -84.5756 285° West 299 344 4,900 2,257 Climbing Atlanta Center
Mon 05:49:41 PM 33.7000 -84.6500 291° West 269 310 6,900 2,444 Climbing Atlanta TRACON
Mon 05:50:00 PM 33.6894 -84.9255 280° West  Level FlightAware Approximate
Mon 05:50:40 PM 33.6833 -84.7333 257° West 269 310 9,300  Level Atlanta TRACON
Mon 05:51:00 PM 33.7075 -85.0520 280° West  Level FlightAware Approximate
Mon 05:52:00 PM 33.7167 -85.1794 270° West  Level FlightAware Approximate
Mon 05:52:52 PM 33.6447 -84.9622 259° West 321 369 12,000  Level Atlanta Center
Mon 05:53:00 PM 33.7136 -85.3077 268° West  Level FlightAware Approximate
Mon 05:53:52 PM 33.6125 -85.0789 252° West 356 410 13,600  Level Atlanta Center
Mon 05:54:52 PM 33.5842 -85.2008 254° West 376 433 15,200 1,750 Climbing Atlanta Center
Mon 05:55:52 PM 33.5600 -85.3250 257° West 382 440 17,100 1,750 Climbing Atlanta Center
Mon 05:56:52 PM 33.5461 -85.4544 263° West 394 453 18,700 1,300 Climbing Atlanta Center
Mon 05:58:00 PM 33.5749 -85.5955 284° West  Level Estimated
Mon 05:58:52 PM 33.5492 -85.7164 284° West 417 480 21,000  Level Atlanta Center
Mon 05:59:52 PM 33.5658 -85.8514 278° West 422 486 22,900 1,450 Climbing Atlanta Center
Mon 06:00:52 PM 33.5931 -85.9839 284° West 417 480 23,900 1,000 Climbing Atlanta Center
Mon 06:01:52 PM 33.6264 -86.1194 286° West 417 480 24,900 1,100 Climbing Atlanta Center
Mon 06:02:52 PM 33.6533 -86.2575 283° West 417 480 26,100 1,050 Climbing Atlanta Center
Mon 06:03:52 PM 33.6569 -86.3997 272° West 417 480 27,000 850 Climbing Atlanta Center
Mon 06:04:52 PM 33.6542 -86.5394 269° West 422 486 27,800 500 Climbing Atlanta Center
Mon 06:05:52 PM 33.6386 -86.6761 262° West 422 486 28,000 100 Climbing Atlanta Center
Mon 06:06:52 PM 33.6419 -86.8161 272° West 422 486 28,000  Level Atlanta Center
Mon 06:07:52 PM 33.6636 -86.9564 281° West 422 486 28,000  Level Atlanta Center
Mon 06:08:52 PM 33.7042 -87.0903 290° West 422 486 28,000  Level Atlanta Center
Mon 06:11:14 PM 33.7956 -87.4153 289° West 429 494 28,000  Level Memphis Center
Mon 06:12:14 PM 33.8217 -87.5567 283° West 434 499 28,000  Level Memphis Center
Mon 06:13:14 PM 33.8478 -87.6961 283° West 429 494 28,000  Level Memphis Center
Mon 06:14:14 PM 33.8758 -87.8378 283° West 435 501 28,000  Level Memphis Center
Mon 06:15:14 PM 33.9014 -87.9797 282° West 430 495 28,000  Level Memphis Center
Mon 06:16:14 PM 33.9314 -88.1342 283° West 430 495 28,000  Level Memphis Center
Mon 06:17:14 PM 33.9611 -88.2786 284° West 440 506 28,000  Level Memphis Center
Mon 06:18:14 PM 33.9906 -88.4231 284° West 440 506 28,000  Level Memphis Center
Mon 06:19:14 PM 34.0303 -88.5575 290° West 435 501 28,000  Level Memphis Center
Mon 06:20:14 PM 34.0697 -88.6972 289° West 435 501 28,000  Level Memphis Center
Mon 06:21:14 PM 34.1069 -88.8319 288° West 435 501 28,000  Level Memphis Center
Mon 06:22:14 PM 34.1400 -88.9744 286° West 435 501 28,000  Level Memphis Center
Mon 06:23:14 PM 34.1706 -89.1144 285° West 435 501 28,000  Level Memphis Center
Mon 06:24:14 PM 34.1844 -89.2447 277° West 435 501 28,000  Level Memphis Center
Mon 06:25:14 PM 34.2086 -89.3903 281° West 440 506 28,000  Level Memphis Center
Mon 06:26:14 PM 34.2306 -89.5356 280° West 446 513 28,000  Level Memphis Center
Mon 06:27:14 PM 34.2522 -89.6786 280° West 446 513 28,000  Level Memphis Center
Mon 06:28:14 PM 34.2489 -89.8269 268° West 446 513 28,000  Level Memphis Center
Mon 06:29:14 PM 34.2411 -89.9853 267° West 436 502 28,000  Level Memphis Center
Mon 06:30:14 PM 34.2350 -90.1286 267° West 436 502 28,000  Level Memphis Center
Mon 06:31:14 PM 34.2542 -90.2667 280° West 430 495 28,000 -550 Level Memphis Center
Mon 06:32:14 PM 34.3167 -90.3897 302° West 422 486 26,900 -1,450 Descending Memphis Center
Mon 06:33:14 PM 34.3750 -90.5081 301° West 417 480 25,100 -1,300 Descending Memphis Center
Mon 06:34:14 PM 34.4250 -90.6242 298° West 410 472 24,300 -950 Descending Memphis Center
Mon 06:35:14 PM 34.4581 -90.7578 287° West 400 460 23,200 -1,000 Descending Memphis Center
Mon 06:36:14 PM 34.4722 -90.8761 278° West 400 460 22,300 -950 Descending Memphis Center
Mon 06:37:14 PM 34.4297 -91.0069 249° West 400 460 21,300 -1,050 Descending Memphis Center
Mon 06:38:14 PM 34.4122 -91.1478 261° West 412 474 20,200 -1,513 Descending Memphis Center
Mon 06:39:13 PM 34.4344 -91.2839 281° West 390 449 18,300 -2,375 Descending Memphis Center
Mon 06:39:50 PM 34.4525 -91.3519 288° West 375 432 16,400 -2,907 Descending Memphis Center
Mon 06:40:50 PM 34.5017 -91.4711 297° West 369 425 13,600 -2,551 Descending Memphis Center
Mon 06:41:57 PM 34.5486 -91.5903 296° West 350 403 11,000 -1,688 Descending Memphis Center
Mon 06:42:58 PM 34.5767 -91.6992 287° West 301 346 10,000 -1,289 Descending Memphis Center
Mon 06:43:58 PM 34.5881 -91.7900 279° West 271 312 8,400 -1,686 Descending Memphis Center
Mon 06:44:59 PM 34.6017 -91.8836 280° West 274 315 6,600 -1,537 Descending Memphis Center
Mon 06:45:59 PM 34.6131 -91.9697 279° West 270 311 5,300 -793 Descending Memphis Center
Mon 06:47:00 PM 34.6036 -92.0653 263° West 269 310 5,000 -148 Descending Memphis Center
Mon 06:48:01 PM 34.5939 -92.1561 263° West 273 314 5,000  Level Memphis Center
Mon 06:49:01 PM 34.5906 -92.2367 267° West 215 247 5,000 -347 Level Memphis Center
Mon 06:50:02 PM 34.5833 -92.3019 262° West 190 219 4,300 -793 Descending Memphis Center
Mon 06:51:02 PM 34.6075 -92.3506 301° West 188 216 3,400 -900 Descending Memphis Center

Login

Don't have an account? Register now (free) for customized features, flight alerts, and more!